Amy C. Mc Allister — WCZ9520 — position and weather

sailwx.info

Track history (hours):
 
Tides and Currents Weather Stations Pressure Air Temp Water Temp Dewpoint Dewpoint Depression Visibility Wind Speed Wind Dir Waves Ship Positions

Amy C. Mc Allister

Owner: MC ALLISTER TOWING & TRANSPORTATION INC, NEW YORK, NY. More information available from US FCC via Universal Licensing System and Coast Guard Vessel Documentation Center.

Last reported at 2018-Apr-20 16:30 UTC. Time now 2018-Apr-20 16:45 UTC.
Position N 39°15' W 076°33'.

Length 27 m; draft 4.9 m.

Type: Towing. MMSI: 366995040.

Date/timePositionNaut miles runAvg speedWind from/ knotsBaromVisibWave heightAir tempDewpointWater temp
2018-Apr-20 16:30N 39°15' W 076°33'0 0.0
2018-Apr-20 16:00N 39°15' W 076°33'0 0.0
2018-Apr-20 15:30N 39°15' W 076°33'0 0.0
2018-Apr-20 15:00N 39°15' W 076°33'0 0.0
2018-Apr-20 14:30N 39°15' W 076°33'0 0.0
2018-Apr-20 14:00N 39°15' W 076°33'0 0.0
2018-Apr-20 13:30N 39°15' W 076°33'0 0.0
2018-Apr-20 13:00N 39°15' W 076°33'0 0.0
2018-Apr-20 12:30N 39°15' W 076°33'0 0.0
2018-Apr-20 12:00N 39°15' W 076°33'0 0.0
2018-Apr-20 11:30N 39°15' W 076°33'0 0.0
2018-Apr-20 11:00N 39°15' W 076°33'0 0.0
2018-Apr-20 10:30N 39°15' W 076°33'0 0.0
2018-Apr-20 10:00N 39°15' W 076°33'0 0.0
2018-Apr-20 09:30N 39°15' W 076°33'0 0.0
2018-Apr-20 09:00N 39°15' W 076°33'0 0.0
2018-Apr-20 08:30N 39°15' W 076°33'0 0.0
2018-Apr-20 08:00N 39°15' W 076°33'0 0.0
2018-Apr-20 07:30N 39°15' W 076°33'0 0.0
2018-Apr-20 07:00N 39°15' W 076°33'0 0.0
2018-Apr-20 06:30N 39°15' W 076°33'0 0.0
2018-Apr-20 06:00N 39°15' W 076°33'0 0.0
2018-Apr-20 05:30N 39°15' W 076°33'0 0.0
2018-Apr-20 05:00N 39°15' W 076°33'0 0.0
2018-Apr-20 04:30N 39°15' W 076°33'0 0.0
2018-Apr-20 04:00N 39°15' W 076°33'0 0.0
2018-Apr-20 03:30N 39°15' W 076°33'0 0.0
2018-Apr-20 03:00N 39°15' W 076°33'0 0.0
2018-Apr-20 02:30N 39°15' W 076°33'0 0.0
2018-Apr-20 02:00N 39°15' W 076°33'0 0.0
2018-Apr-20 01:30N 39°15' W 076°33'0 0.0
2018-Apr-20 01:00N 39°15' W 076°33'0 0.0
2018-Apr-20 00:30N 39°15' W 076°33'0 0.0
2018-Apr-20 00:00N 39°15' W 076°33'0 0.0
2018-Apr-19 23:30N 39°15' W 076°33'0 0.0
2018-Apr-19 23:00N 39°15' W 076°33'0 0.0
2018-Apr-19 22:30N 39°15' W 076°33'0 1.0
2018-Apr-19 22:00N 39°15' W 076°33'3 6.1
2018-Apr-19 21:30N 39°12' W 076°31'4 8.0
2018-Apr-19 21:00N 39°11' W 076°26'4 7.1
2018-Apr-19 20:24N 39°07' W 076°24'4 6.7
2018-Apr-19 19:45N 39°03' W 076°23'1 4.7
2018-Apr-19 19:29N 39°02' W 076°22'3 6.1
2018-Apr-19 18:58N 38°58' W 076°23'3 6.3
2018-Apr-19 18:30N 38°55' W 076°24'3 6.0
2018-Apr-19 18:00N 38°53' W 076°24'4 5.9
2018-Apr-19 17:18N 38°49' W 076°26'114 6.5
2018-Apr-18 23:53N 36°55' W 076°20'0 1.1
2018-Apr-18 23:28N 36°55' W 076°20'0 0.0
2018-Apr-18 21:13N 36°55' W 076°20'2 2.9
2018-Apr-18 20:34N 36°53' W 076°20'0 6.8
2018-Apr-18 20:30N 36°53' W 076°20'1 1.0
2018-Apr-18 20:00N 36°53' W 076°21'0 0.1
2018-Apr-18 19:30N 36°53' W 076°21'0 0.1
2018-Apr-18 19:00N 36°53' W 076°21'0 0.0
2018-Apr-18 18:30N 36°53' W 076°21'0 0.0
2018-Apr-18 18:00N 36°53' W 076°21'0 0.0
2018-Apr-18 17:30N 36°53' W 076°21'0 0.0
2018-Apr-18 17:00N 36°53' W 076°21'0 0.0
2018-Apr-18 16:30N 36°53' W 076°21'0 0.5
2018-Apr-18 15:58N 36°53' W 076°21'3 7.2
2018-Apr-18 15:30N 36°50' W 076°18'2 3.9
2018-Apr-18 14:51N 36°52' W 076°20'1 3.2
2018-Apr-18 14:30N 36°53' W 076°21'0 0.4
2018-Apr-18 13:58N 36°53' W 076°21'3 2.9
2018-Apr-18 12:52N 36°56' W 076°20'3 0.4
2018-Apr-18 05:33N 36°53' W 076°20'0 7.6
2018-Apr-18 05:30N 36°52' W 076°20'3 6.4
2018-Apr-18 05:00N 36°50' W 076°18'2 3.7
2018-Apr-18 04:30N 36°48' W 076°18'0 0.0
2018-Apr-18 04:00N 36°48' W 076°18'0 0.0
2018-Apr-18 03:30N 36°48' W 076°18'0 0.0
2018-Apr-18 03:00N 36°48' W 076°18'0 0.0
2018-Apr-18 02:30N 36°48' W 076°18'0 0.1
2018-Apr-18 02:00N 36°48' W 076°18'0 0.0
2018-Apr-18 01:30N 36°48' W 076°18'2 4.3
2018-Apr-18 01:00N 36°50' W 076°18'0 0.8
2018-Apr-18 00:30N 36°50' W 076°17'0 0.0
2018-Apr-17 23:56N 36°50' W 076°17'0 0.0
2018-Apr-17 23:30N 36°50' W 076°17'0 0.0
2018-Apr-17 23:00N 36°50' W 076°17'0 0.0
2018-Apr-17 22:30N 36°50' W 076°17'0 0.0
2018-Apr-17 22:00N 36°50' W 076°17'0 0.0
2018-Apr-17 20:46N 36°50' W 076°17'0 0.0
2018-Apr-17 20:30N 36°50' W 076°17'0 0.0
2018-Apr-17 20:00N 36°50' W 076°17'0 0.0
2018-Apr-17 19:30N 36°50' W 076°17'0 0.0
2018-Apr-17 18:59N 36°50' W 076°17'0 0.0
2018-Apr-17 18:29N 36°50' W 076°17'0 0.0
2018-Apr-17 18:00N 36°50' W 076°17'0 0.0
2018-Apr-17 17:30N 36°50' W 076°17'0 0.0
2018-Apr-17 15:24N 36°50' W 076°17'0 0.0
2018-Apr-17 14:59N 36°50' W 076°17'2 3.4
2018-Apr-17 14:29N 36°52' W 076°19'4 0.5
2018-Apr-17 05:56N 36°56' W 076°20'3 0.2
2018-Apr-16 17:11N 36°53' W 076°20'1 3.8
2018-Apr-16 16:58N 36°53' W 076°21'0 0.0
2018-Apr-16 16:06N 36°53' W 076°21'0 0.0
2018-Apr-16 15:55N 36°53' W 076°21'0 0.0
2018-Apr-16 15:23N 36°53' W 076°21'0 0.0
2018-Apr-16 13:19N 36°53' W 076°21'0 0.0
2018-Apr-16 12:47N 36°53' W 076°21'0 0.1
2018-Apr-16 12:30N 36°53' W 076°21'0 0.0
2018-Apr-16 11:58N 36°53' W 076°21'0 0.0
2018-Apr-16 10:09N 36°53' W 076°21'1 7.5
2018-Apr-16 10:00N 36°52' W 076°20'1 0.8
2018-Apr-16 09:16N 36°52' W 076°19'1 2.2
2018-Apr-16 09:00N 36°52' W 076°20'1 0.7
2018-Apr-16 07:21N 36°53' W 076°21'115 5.5
2018-Apr-15 10:26N 38°47' W 076°26'4 9.1
2018-Apr-15 10:01N 38°51' W 076°25'5 8.9
2018-Apr-15 09:26N 38°56' W 076°24'31 9.1
2018-Apr-15 05:59N 39°24' W 076°04'510.8
2018-Apr-15 05:30N 39°27' W 075°59'510.9
2018-Apr-15 05:00N 39°31' W 075°54'510.9
2018-Apr-15 04:30N 39°32' W 075°47'611.4
2018-Apr-15 04:00N 39°33' W 075°40'510.4
2018-Apr-15 03:30N 39°34' W 075°33'3 7.0
2018-Apr-15 03:01N 39°37' W 075°35'4 7.5
2018-Apr-15 02:30N 39°40' W 075°32'4 7.3
2018-Apr-15 02:00N 39°44' W 075°30'4 7.4
2018-Apr-15 01:30N 39°47' W 075°28'4 7.9
2018-Apr-15 01:00N 39°49' W 075°24'4 8.3
2018-Apr-15 00:30N 39°51' W 075°19'5 9.5
2018-Apr-15 00:00N 39°52' W 075°13'4 8.5
2018-Apr-14 23:31N 39°54' W 075°08'0 0.2
2018-Apr-14 23:00N 39°54' W 075°08'0 0.0
2018-Apr-14 22:30N 39°54' W 075°08'0 0.0
2018-Apr-14 22:00N 39°54' W 075°08'0 0.0
2018-Apr-14 21:30N 39°54' W 075°08'0 0.0
2018-Apr-14 20:59N 39°54' W 075°08'1 1.5
2018-Apr-14 20:30N 39°55' W 075°08'0 0.5
2018-Apr-14 20:01N 39°55' W 075°08'1 2.1
2018-Apr-14 19:30N 39°54' W 075°08'1 2.4
2018-Apr-14 19:00N 39°53' W 075°09'3 5.8
2018-Apr-14 18:30N 39°52' W 075°12'3 6.1
2018-Apr-14 18:00N 39°51' W 075°16'2 4.3
2018-Apr-14 17:30N 39°51' W 075°19'2 4.1
2018-Apr-14 17:01N 39°50' W 075°21'2 4.5
2018-Apr-14 16:30N 39°49' W 075°24'2 4.8
2018-Apr-14 16:00N 39°48' W 075°26'2 5.0
2018-Apr-14 15:31N 39°46' W 075°29'3 6.0
2018-Apr-14 15:00N 39°43' W 075°30'3 6.3
2018-Apr-14 14:31N 39°40' W 075°32'3 6.1
2018-Apr-14 14:01N 39°38' W 075°34'3 5.8
2018-Apr-14 13:30N 39°35' W 075°33'2 4.7
2018-Apr-14 13:01N 39°33' W 075°36'3 6.1
2018-Apr-14 12:30N 39°33' W 075°39'3 6.5
2018-Apr-14 12:00N 39°33' W 075°44'3 6.9
2018-Apr-14 11:31N 39°32' W 075°48'4 7.1
2018-Apr-14 10:59N 39°31' W 075°53'4 7.2
2018-Apr-14 10:27N 39°29' W 075°57'3 7.1
2018-Apr-14 10:00N 39°27' W 075°60'4 6.9
2018-Apr-14 09:29N 39°24' W 076°03'4 7.1
2018-Apr-14 08:55N 39°22' W 076°07'21 5.3
2018-Apr-14 04:57N 39°14' W 076°32'2 4.0
2018-Apr-14 04:30N 39°15' W 076°33'0 0.0
2018-Apr-14 02:45N 39°15' W 076°33'0 0.0
2018-Apr-14 02:29N 39°15' W 076°33'0 0.0
2018-Apr-14 02:00N 39°15' W 076°33'0 0.0
2018-Apr-14 01:31N 39°15' W 076°33'0 0.2
2018-Apr-14 01:00N 39°15' W 076°33'0 0.2
2018-Apr-14 00:31N 39°15' W 076°33'0 0.0
2018-Apr-13 23:42N 39°15' W 076°33'0 0.0
2018-Apr-13 23:28N 39°15' W 076°33'0 0.0
2018-Apr-13 23:00N 39°15' W 076°33'0 0.0
2018-Apr-13 22:26N 39°15' W 076°33'0 0.0
2018-Apr-13 21:37N 39°15' W 076°33'0 0.1
2018-Apr-13 21:30N 39°15' W 076°33'0 0.0
2018-Apr-13 20:15N 39°15' W 076°33'0 0.0
2018-Apr-13 19:58N 39°15' W 076°33'0 0.0
2018-Apr-13 19:24N 39°15' W 076°33'0 0.0
2018-Apr-13 18:59N 39°15' W 076°33'0 0.0
2018-Apr-13 18:30N 39°15' W 076°33'0 0.0
2018-Apr-13 18:00N 39°15' W 076°33'0 0.0
2018-Apr-13 17:31N 39°15' W 076°33'0 0.0
2018-Apr-13 17:00N 39°15' W 076°33'0 0.0
2018-Apr-13 16:30N 39°15' W 076°33'0 0.0
2018-Apr-13 16:00N 39°15' W 076°33'0 0.0
2018-Apr-13 15:31N 39°15' W 076°33'0 0.0
2018-Apr-13 15:01N 39°15' W 076°33'0 0.0
2018-Apr-13 14:30N 39°15' W 076°33'0 0.0
2018-Apr-13 14:00N 39°15' W 076°33'0 0.0
2018-Apr-13 13:30N 39°15' W 076°33'0 0.0
2018-Apr-13 13:01N 39°15' W 076°33'0 0.0
2018-Apr-13 12:31N 39°15' W 076°33'0 0.0
2018-Apr-13 12:00N 39°15' W 076°33'0 0.0
2018-Apr-13 11:30N 39°15' W 076°33'1 1.8
2018-Apr-13 11:00N 39°15' W 076°33'4 7.0
2018-Apr-13 10:25N 39°12' W 076°29'9 7.9
2018-Apr-13 09:19N 39°04' W 076°24'129 8.0
2018-Apr-12 17:12N 36°55' W 076°20'1 2.7
2018-Apr-12 17:00N 36°55' W 076°20'0 0.1
2018-Apr-12 16:30N 36°55' W 076°20'0 0.0
2018-Apr-12 15:51N 36°55' W 076°20'0 0.0
2018-Apr-12 15:30N 36°55' W 076°20'0 0.0
2018-Apr-12 15:00N 36°55' W 076°20'0 0.0
2018-Apr-12 14:27N 36°55' W 076°20'0 0.0
2018-Apr-12 14:00N 36°55' W 076°20'0 0.0
2018-Apr-12 13:30N 36°55' W 076°20'0 0.0
2018-Apr-12 12:59N 36°55' W 076°20'0 0.0
2018-Apr-12 12:30N 36°55' W 076°20'0 0.0
2018-Apr-12 12:00N 36°55' W 076°20'0 0.0
2018-Apr-12 11:30N 36°55' W 076°20'0 0.0
2018-Apr-12 11:00N 36°55' W 076°20'0 0.0
2018-Apr-12 10:30N 36°55' W 076°20'0 0.0
2018-Apr-12 10:00N 36°55' W 076°20'0 0.0
2018-Apr-12 09:30N 36°55' W 076°20'0 0.0
2018-Apr-12 08:53N 36°55' W 076°20'0 0.0
2018-Apr-12 08:27N 36°55' W 076°20'0 0.0
2018-Apr-12 07:59N 36°55' W 076°20'0 0.0
2018-Apr-12 07:30N 36°55' W 076°20'0 0.0
2018-Apr-12 06:42N 36°55' W 076°20'0 0.0
2018-Apr-12 05:13N 36°55' W 076°20'0 0.0
2018-Apr-12 04:13N 36°55' W 076°20'0 0.0
2018-Apr-12 03:53N 36°55' W 076°20'0 0.0
2018-Apr-12 00:43N 36°55' W 076°20'0 0.0
2018-Apr-12 00:27N 36°55' W 076°20'0 0.0
2018-Apr-11 23:59N 36°55' W 076°20'0 0.0
2018-Apr-11 23:27N 36°55' W 076°20'0 0.0
2018-Apr-11 22:16N 36°55' W 076°20'0 0.0
2018-Apr-11 20:19N 36°55' W 076°20'0 0.0
2018-Apr-11 15:40N 36°55' W 076°20'0 0.0
2018-Apr-11 14:35N 36°55' W 076°20'0 0.0
2018-Apr-11 13:50N 36°55' W 076°20'0 0.0
2018-Apr-11 11:55N 36°55' W 076°20'0 0.0
2018-Apr-11 11:26N 36°55' W 076°20'0 0.0
2018-Apr-11 10:44N 36°55' W 076°20'0 0.0
2018-Apr-11 10:28N 36°55' W 076°20'0 0.0
2018-Apr-11 09:56N 36°55' W 076°20'0 0.0
2018-Apr-11 09:30N 36°55' W 076°20'0 0.0
2018-Apr-11 08:50N 36°55' W 076°20'0 0.0
2018-Apr-11 08:27N 36°55' W 076°20'0 0.0
2018-Apr-11 07:49N 36°55' W 076°20'0 0.0
2018-Apr-11 06:14N 36°55' W 076°20'0 0.0
2018-Apr-11 05:58N 36°55' W 076°20'0 0.0
2018-Apr-11 02:34N 36°55' W 076°20'0 4.1
2018-Apr-11 02:27N 36°55' W 076°20'4 9.6
2018-Apr-11 02:00N 36°51' W 076°18'0 0.5
2018-Apr-11 01:30N 36°51' W 076°18'4 8.0
2018-Apr-11 01:00N 36°55' W 076°20'0 0.6
2018-Apr-11 00:23N 36°55' W 076°20'2 5.8
2018-Apr-10 23:59N 36°53' W 076°21'0 0.5
2018-Apr-10 23:30N 36°52' W 076°21'0 0.0
2018-Apr-10 23:00N 36°52' W 076°21'0 0.8
2018-Apr-10 22:30N 36°53' W 076°21'0 0.8
2018-Apr-10 22:00N 36°52' W 076°21'0 0.0
2018-Apr-10 21:30N 36°52' W 076°21'0 0.0
2018-Apr-10 21:01N 36°52' W 076°21'0 0.0
2018-Apr-10 20:30N 36°52' W 076°21'0 0.0
2018-Apr-10 20:00N 36°52' W 076°21'0 0.0
2018-Apr-10 19:29N 36°52' W 076°21'0 0.1
2018-Apr-10 19:00N 36°52' W 076°21'0 0.1
2018-Apr-10 18:30N 36°53' W 076°21'0 0.1
2018-Apr-10 18:00N 36°52' W 076°21'0 0.1
2018-Apr-10 17:30N 36°52' W 076°21'0 0.1
2018-Apr-10 17:00N 36°52' W 076°21'0 0.1
2018-Apr-10 16:30N 36°52' W 076°21'  
Track history (hours):
 
Tides and Currents Weather Stations Pressure Air Temp Water Temp Dewpoint Dewpoint Depression Visibility Wind Speed Wind Dir Waves Ship Positions

Amy C. Mc Allister

Owner: MC ALLISTER TOWING & TRANSPORTATION INC, NEW YORK, NY. More information available from US FCC via Universal Licensing System and Coast Guard Vessel Documentation Center.

Last reported at 2018-Apr-20 16:30 UTC. Time now 2018-Apr-20 16:45 UTC.
Position N 39°15' W 076°33'.

Length 27 m; draft 4.9 m.

Type: Towing. MMSI: 366995040.

Date/timePositionNaut miles runAvg speedWind from/ knotsBaromVisibWave heightAir tempDewpointWater temp
2018-Apr-20 16:30N 39°15' W 076°33'0 0.0
2018-Apr-20 16:00N 39°15' W 076°33'0 0.0
2018-Apr-20 15:30N 39°15' W 076°33'0 0.0
2018-Apr-20 15:00N 39°15' W 076°33'0 0.0
2018-Apr-20 14:30N 39°15' W 076°33'0 0.0
2018-Apr-20 14:00N 39°15' W 076°33'0 0.0
2018-Apr-20 13:30N 39°15' W 076°33'0 0.0
2018-Apr-20 13:00N 39°15' W 076°33'0 0.0
2018-Apr-20 12:30N 39°15' W 076°33'0 0.0
2018-Apr-20 12:00N 39°15' W 076°33'0 0.0
2018-Apr-20 11:30N 39°15' W 076°33'0 0.0
2018-Apr-20 11:00N 39°15' W 076°33'0 0.0
2018-Apr-20 10:30N 39°15' W 076°33'0 0.0
2018-Apr-20 10:00N 39°15' W 076°33'0 0.0
2018-Apr-20 09:30N 39°15' W 076°33'0 0.0
2018-Apr-20 09:00N 39°15' W 076°33'0 0.0
2018-Apr-20 08:30N 39°15' W 076°33'0 0.0
2018-Apr-20 08:00N 39°15' W 076°33'0 0.0
2018-Apr-20 07:30N 39°15' W 076°33'0 0.0
2018-Apr-20 07:00N 39°15' W 076°33'0 0.0
2018-Apr-20 06:30N 39°15' W 076°33'0 0.0
2018-Apr-20 06:00N 39°15' W 076°33'0 0.0
2018-Apr-20 05:30N 39°15' W 076°33'0 0.0
2018-Apr-20 05:00N 39°15' W 076°33'0 0.0
2018-Apr-20 04:30N 39°15' W 076°33'0 0.0
2018-Apr-20 04:00N 39°15' W 076°33'0 0.0
2018-Apr-20 03:30N 39°15' W 076°33'0 0.0
2018-Apr-20 03:00N 39°15' W 076°33'0 0.0
2018-Apr-20 02:30N 39°15' W 076°33'0 0.0
2018-Apr-20 02:00N 39°15' W 076°33'0 0.0
2018-Apr-20 01:30N 39°15' W 076°33'0 0.0
2018-Apr-20 01:00N 39°15' W 076°33'0 0.0
2018-Apr-20 00:30N 39°15' W 076°33'0 0.0
2018-Apr-20 00:00N 39°15' W 076°33'0 0.0
2018-Apr-19 23:30N 39°15' W 076°33'0 0.0
2018-Apr-19 23:00N 39°15' W 076°33'0 0.0
2018-Apr-19 22:30N 39°15' W 076°33'0 1.0
2018-Apr-19 22:00N 39°15' W 076°33'3 6.1
2018-Apr-19 21:30N 39°12' W 076°31'4 8.0
2018-Apr-19 21:00N 39°11' W 076°26'4 7.1
2018-Apr-19 20:24N 39°07' W 076°24'4 6.7
2018-Apr-19 19:45N 39°03' W 076°23'1 4.7
2018-Apr-19 19:29N 39°02' W 076°22'3 6.1
2018-Apr-19 18:58N 38°58' W 076°23'3 6.3
2018-Apr-19 18:30N 38°55' W 076°24'3 6.0
2018-Apr-19 18:00N 38°53' W 076°24'4 5.9
2018-Apr-19 17:18N 38°49' W 076°26'114 6.5
2018-Apr-18 23:53N 36°55' W 076°20'0 1.1
2018-Apr-18 23:28N 36°55' W 076°20'0 0.0
2018-Apr-18 21:13N 36°55' W 076°20'2 2.9
2018-Apr-18 20:34N 36°53' W 076°20'0 6.8
2018-Apr-18 20:30N 36°53' W 076°20'1 1.0
2018-Apr-18 20:00N 36°53' W 076°21'0 0.1
2018-Apr-18 19:30N 36°53' W 076°21'0 0.1
2018-Apr-18 19:00N 36°53' W 076°21'0 0.0
2018-Apr-18 18:30N 36°53' W 076°21'0 0.0
2018-Apr-18 18:00N 36°53' W 076°21'0 0.0
2018-Apr-18 17:30N 36°53' W 076°21'0 0.0
2018-Apr-18 17:00N 36°53' W 076°21'0 0.0
2018-Apr-18 16:30N 36°53' W 076°21'0 0.5
2018-Apr-18 15:58N 36°53' W 076°21'3 7.2
2018-Apr-18 15:30N 36°50' W 076°18'2 3.9
2018-Apr-18 14:51N 36°52' W 076°20'1 3.2
2018-Apr-18 14:30N 36°53' W 076°21'0 0.4
2018-Apr-18 13:58N 36°53' W 076°21'3 2.9
2018-Apr-18 12:52N 36°56' W 076°20'3 0.4
2018-Apr-18 05:33N 36°53' W 076°20'0 7.6
2018-Apr-18 05:30N 36°52' W 076°20'3 6.4
2018-Apr-18 05:00N 36°50' W 076°18'2 3.7
2018-Apr-18 04:30N 36°48' W 076°18'0 0.0
2018-Apr-18 04:00N 36°48' W 076°18'0 0.0
2018-Apr-18 03:30N 36°48' W 076°18'0 0.0
2018-Apr-18 03:00N 36°48' W 076°18'0 0.0
2018-Apr-18 02:30N 36°48' W 076°18'0 0.1
2018-Apr-18 02:00N 36°48' W 076°18'0 0.0
2018-Apr-18 01:30N 36°48' W 076°18'2 4.3
2018-Apr-18 01:00N 36°50' W 076°18'0 0.8
2018-Apr-18 00:30N 36°50' W 076°17'0 0.0
2018-Apr-17 23:56N 36°50' W 076°17'0 0.0
2018-Apr-17 23:30N 36°50' W 076°17'0 0.0
2018-Apr-17 23:00N 36°50' W 076°17'0 0.0
2018-Apr-17 22:30N 36°50' W 076°17'0 0.0
2018-Apr-17 22:00N 36°50' W 076°17'0 0.0
2018-Apr-17 20:46N 36°50' W 076°17'0 0.0
2018-Apr-17 20:30N 36°50' W 076°17'0 0.0
2018-Apr-17 20:00N 36°50' W 076°17'0 0.0
2018-Apr-17 19:30N 36°50' W 076°17'0 0.0
2018-Apr-17 18:59N 36°50' W 076°17'0 0.0
2018-Apr-17 18:29N 36°50' W 076°17'0 0.0
2018-Apr-17 18:00N 36°50' W 076°17'0 0.0
2018-Apr-17 17:30N 36°50' W 076°17'0 0.0
2018-Apr-17 15:24N 36°50' W 076°17'0 0.0
2018-Apr-17 14:59N 36°50' W 076°17'2 3.4
2018-Apr-17 14:29N 36°52' W 076°19'4 0.5
2018-Apr-17 05:56N 36°56' W 076°20'3 0.2
2018-Apr-16 17:11N 36°53' W 076°20'1 3.8
2018-Apr-16 16:58N 36°53' W 076°21'0 0.0
2018-Apr-16 16:06N 36°53' W 076°21'0 0.0
2018-Apr-16 15:55N 36°53' W 076°21'0 0.0
2018-Apr-16 15:23N 36°53' W 076°21'0 0.0
2018-Apr-16 13:19N 36°53' W 076°21'0 0.0
2018-Apr-16 12:47N 36°53' W 076°21'0 0.1
2018-Apr-16 12:30N 36°53' W 076°21'0 0.0
2018-Apr-16 11:58N 36°53' W 076°21'0 0.0
2018-Apr-16 10:09N 36°53' W 076°21'1 7.5
2018-Apr-16 10:00N 36°52' W 076°20'1 0.8
2018-Apr-16 09:16N 36°52' W 076°19'1 2.2
2018-Apr-16 09:00N 36°52' W 076°20'1 0.7
2018-Apr-16 07:21N 36°53' W 076°21'115 5.5
2018-Apr-15 10:26N 38°47' W 076°26'4 9.1
2018-Apr-15 10:01N 38°51' W 076°25'5 8.9
2018-Apr-15 09:26N 38°56' W 076°24'31 9.1
2018-Apr-15 05:59N 39°24' W 076°04'510.8
2018-Apr-15 05:30N 39°27' W 075°59'510.9
2018-Apr-15 05:00N 39°31' W 075°54'510.9
2018-Apr-15 04:30N 39°32' W 075°47'611.4
2018-Apr-15 04:00N 39°33' W 075°40'510.4
2018-Apr-15 03:30N 39°34' W 075°33'3 7.0
2018-Apr-15 03:01N 39°37' W 075°35'4 7.5
2018-Apr-15 02:30N 39°40' W 075°32'4 7.3
2018-Apr-15 02:00N 39°44' W 075°30'4 7.4
2018-Apr-15 01:30N 39°47' W 075°28'4 7.9
2018-Apr-15 01:00N 39°49' W 075°24'4 8.3
2018-Apr-15 00:30N 39°51' W 075°19'5 9.5
2018-Apr-15 00:00N 39°52' W 075°13'4 8.5
2018-Apr-14 23:31N 39°54' W 075°08'0 0.2
2018-Apr-14 23:00N 39°54' W 075°08'0 0.0
2018-Apr-14 22:30N 39°54' W 075°08'0 0.0
2018-Apr-14 22:00N 39°54' W 075°08'0 0.0
2018-Apr-14 21:30N 39°54' W 075°08'0 0.0
2018-Apr-14 20:59N 39°54' W 075°08'1 1.5
2018-Apr-14 20:30N 39°55' W 075°08'0 0.5
2018-Apr-14 20:01N 39°55' W 075°08'1 2.1
2018-Apr-14 19:30N 39°54' W 075°08'1 2.4
2018-Apr-14 19:00N 39°53' W 075°09'3 5.8
2018-Apr-14 18:30N 39°52' W 075°12'3 6.1
2018-Apr-14 18:00N 39°51' W 075°16'2 4.3
2018-Apr-14 17:30N 39°51' W 075°19'2 4.1
2018-Apr-14 17:01N 39°50' W 075°21'2 4.5
2018-Apr-14 16:30N 39°49' W 075°24'2 4.8
2018-Apr-14 16:00N 39°48' W 075°26'2 5.0
2018-Apr-14 15:31N 39°46' W 075°29'3 6.0
2018-Apr-14 15:00N 39°43' W 075°30'3 6.3
2018-Apr-14 14:31N 39°40' W 075°32'3 6.1
2018-Apr-14 14:01N 39°38' W 075°34'3 5.8
2018-Apr-14 13:30N 39°35' W 075°33'2 4.7
2018-Apr-14 13:01N 39°33' W 075°36'3 6.1
2018-Apr-14 12:30N 39°33' W 075°39'3 6.5
2018-Apr-14 12:00N 39°33' W 075°44'3 6.9
2018-Apr-14 11:31N 39°32' W 075°48'4 7.1
2018-Apr-14 10:59N 39°31' W 075°53'4 7.2
2018-Apr-14 10:27N 39°29' W 075°57'3 7.1
2018-Apr-14 10:00N 39°27' W 075°60'4 6.9
2018-Apr-14 09:29N 39°24' W 076°03'4 7.1
2018-Apr-14 08:55N 39°22' W 076°07'21 5.3
2018-Apr-14 04:57N 39°14' W 076°32'2 4.0
2018-Apr-14 04:30N 39°15' W 076°33'0 0.0
2018-Apr-14 02:45N 39°15' W 076°33'0 0.0
2018-Apr-14 02:29N 39°15' W 076°33'0 0.0
2018-Apr-14 02:00N 39°15' W 076°33'0 0.0
2018-Apr-14 01:31N 39°15' W 076°33'0 0.2
2018-Apr-14 01:00N 39°15' W 076°33'0 0.2
2018-Apr-14 00:31N 39°15' W 076°33'0 0.0
2018-Apr-13 23:42N 39°15' W 076°33'0 0.0
2018-Apr-13 23:28N 39°15' W 076°33'0 0.0
2018-Apr-13 23:00N 39°15' W 076°33'0 0.0
2018-Apr-13 22:26N 39°15' W 076°33'0 0.0
2018-Apr-13 21:37N 39°15' W 076°33'0 0.1
2018-Apr-13 21:30N 39°15' W 076°33'0 0.0
2018-Apr-13 20:15N 39°15' W 076°33'0 0.0
2018-Apr-13 19:58N 39°15' W 076°33'0 0.0
2018-Apr-13 19:24N 39°15' W 076°33'0 0.0
2018-Apr-13 18:59N 39°15' W 076°33'0 0.0
2018-Apr-13 18:30N 39°15' W 076°33'0 0.0
2018-Apr-13 18:00N 39°15' W 076°33'0 0.0
2018-Apr-13 17:31N 39°15' W 076°33'0 0.0
2018-Apr-13 17:00N 39°15' W 076°33'0 0.0
2018-Apr-13 16:30N 39°15' W 076°33'0 0.0
2018-Apr-13 16:00N 39°15' W 076°33'0 0.0
2018-Apr-13 15:31N 39°15' W 076°33'0 0.0
2018-Apr-13 15:01N 39°15' W 076°33'0 0.0
2018-Apr-13 14:30N 39°15' W 076°33'0 0.0
2018-Apr-13 14:00N 39°15' W 076°33'0 0.0
2018-Apr-13 13:30N 39°15' W 076°33'0 0.0
2018-Apr-13 13:01N 39°15' W 076°33'0 0.0
2018-Apr-13 12:31N 39°15' W 076°33'0 0.0
2018-Apr-13 12:00N 39°15' W 076°33'0 0.0
2018-Apr-13 11:30N 39°15' W 076°33'1 1.8
2018-Apr-13 11:00N 39°15' W 076°33'4 7.0
2018-Apr-13 10:25N 39°12' W 076°29'9 7.9
2018-Apr-13 09:19N 39°04' W 076°24'129 8.0
2018-Apr-12 17:12N 36°55' W 076°20'1 2.7
2018-Apr-12 17:00N 36°55' W 076°20'0 0.1
2018-Apr-12 16:30N 36°55' W 076°20'0 0.0
2018-Apr-12 15:51N 36°55' W 076°20'0 0.0
2018-Apr-12 15:30N 36°55' W 076°20'0 0.0
2018-Apr-12 15:00N 36°55' W 076°20'0 0.0
2018-Apr-12 14:27N 36°55' W 076°20'0 0.0
2018-Apr-12 14:00N 36°55' W 076°20'0 0.0
2018-Apr-12 13:30N 36°55' W 076°20'0 0.0
2018-Apr-12 12:59N 36°55' W 076°20'0 0.0
2018-Apr-12 12:30N 36°55' W 076°20'0 0.0
2018-Apr-12 12:00N 36°55' W 076°20'0 0.0
2018-Apr-12 11:30N 36°55' W 076°20'0 0.0
2018-Apr-12 11:00N 36°55' W 076°20'0 0.0
2018-Apr-12 10:30N 36°55' W 076°20'0 0.0
2018-Apr-12 10:00N 36°55' W 076°20'0 0.0
2018-Apr-12 09:30N 36°55' W 076°20'0 0.0
2018-Apr-12 08:53N 36°55' W 076°20'0 0.0
2018-Apr-12 08:27N 36°55' W 076°20'0 0.0
2018-Apr-12 07:59N 36°55' W 076°20'0 0.0
2018-Apr-12 07:30N 36°55' W 076°20'0 0.0
2018-Apr-12 06:42N 36°55' W 076°20'0 0.0
2018-Apr-12 05:13N 36°55' W 076°20'0 0.0
2018-Apr-12 04:13N 36°55' W 076°20'0 0.0
2018-Apr-12 03:53N 36°55' W 076°20'0 0.0
2018-Apr-12 00:43N 36°55' W 076°20'0 0.0
2018-Apr-12 00:27N 36°55' W 076°20'0 0.0
2018-Apr-11 23:59N 36°55' W 076°20'0 0.0
2018-Apr-11 23:27N 36°55' W 076°20'0 0.0
2018-Apr-11 22:16N 36°55' W 076°20'0 0.0
2018-Apr-11 20:19N 36°55' W 076°20'0 0.0
2018-Apr-11 15:40N 36°55' W 076°20'0 0.0
2018-Apr-11 14:35N 36°55' W 076°20'0 0.0
2018-Apr-11 13:50N 36°55' W 076°20'0 0.0
2018-Apr-11 11:55N 36°55' W 076°20'0 0.0
2018-Apr-11 11:26N 36°55' W 076°20'0 0.0
2018-Apr-11 10:44N 36°55' W 076°20'0 0.0
2018-Apr-11 10:28N 36°55' W 076°20'0 0.0
2018-Apr-11 09:56N 36°55' W 076°20'0 0.0
2018-Apr-11 09:30N 36°55' W 076°20'0 0.0
2018-Apr-11 08:50N 36°55' W 076°20'0 0.0
2018-Apr-11 08:27N 36°55' W 076°20'0 0.0
2018-Apr-11 07:49N 36°55' W 076°20'0 0.0
2018-Apr-11 06:14N 36°55' W 076°20'0 0.0
2018-Apr-11 05:58N 36°55' W 076°20'0 0.0
2018-Apr-11 02:34N 36°55' W 076°20'0 4.1
2018-Apr-11 02:27N 36°55' W 076°20'4 9.6
2018-Apr-11 02:00N 36°51' W 076°18'0 0.5
2018-Apr-11 01:30N 36°51' W 076°18'4 8.0
2018-Apr-11 01:00N 36°55' W 076°20'0 0.6
2018-Apr-11 00:23N 36°55' W 076°20'2 5.8
2018-Apr-10 23:59N 36°53' W 076°21'0 0.5
2018-Apr-10 23:30N 36°52' W 076°21'0 0.0
2018-Apr-10 23:00N 36°52' W 076°21'0 0.8
2018-Apr-10 22:30N 36°53' W 076°21'0 0.8
2018-Apr-10 22:00N 36°52' W 076°21'0 0.0
2018-Apr-10 21:30N 36°52' W 076°21'0 0.0
2018-Apr-10 21:01N 36°52' W 076°21'0 0.0
2018-Apr-10 20:30N 36°52' W 076°21'0 0.0
2018-Apr-10 20:00N 36°52' W 076°21'0 0.0
2018-Apr-10 19:29N 36°52' W 076°21'0 0.1
2018-Apr-10 19:00N 36°52' W 076°21'0 0.1
2018-Apr-10 18:30N 36°53' W 076°21'0 0.1
2018-Apr-10 18:00N 36°52' W 076°21'0 0.1
2018-Apr-10 17:30N 36°52' W 076°21'0 0.1
2018-Apr-10 17:00N 36°52' W 076°21'0 0.1
2018-Apr-10 16:30N 36°52' W 076°21'  

Dump ship's entire track history